Airfield :
LOGIN :

Register | Disclaimer

   EN    FR    IT 

 










Legend :    VFR   Marginal VFR   IFR   Intensive IFR   Very Intensive IFR
Visi :
Ceiling :
>= 8 km
>= 3000ft
5 to 8 km
1000 to 3000 ft
1500m to 5 km
500 to 1000 ft
800 to 1500m
200 to 500 ft
< 800m
< 200 ft
Symbols :   Thunderstorms  Fog  Heavy snow  Heavy precipitations  Wind > 20 kt
SIGMETs :     Misc.  Thunderstorms  Icing  Turbulence  Mountain Waves  Volcanic Ashes







- Airport Elevation : 236 ft
- IATA code : MMX


ESMS - Malmö Sturup

CURRENT METAR :
  • 231550Z 29022G32KT 9999 BKN028 12/07 Q0998

EXPIRED METARs :
  • 231520Z 30023G33KT 9999 FEW031 SCT041 BKN053 12/07 Q0997
  • 231450Z 30025G37KT 9999 SCT030 BKN046 11/06 Q0997
  • 231420Z 30024G38KT 9999 BKN028 12/07 Q0997
  • 231350Z 29025KT 9999 BKN025 OVC036 12/07 Q0997
  • 231320Z 29024G36KT 9999 BKN022 OVC031 13/08 Q0997

TAF TAF ESMS
Valid from the 23 at 12:00 until the 24 at 12:00 UTC


231112Z 2312/2412 30022G35KT 9999 SCT025
TEMPO 2312/2314 29020KT SHRA BKN018CB
TEMPO 2314/2320 31020KT SCT020TCU
BECMG 2320/2323 32012KT
No reported NOTAMs for that airfield.



MET'MAP, your aeronautical weather chart ! - Copyright ORBIFLY December 2007 - Disclaimer

ORBIFLY MET'MAP TEAM :

Programming & Development : Alexandra Zaïnal
Concept & Development : Baudouin d'Aumeries
Co-Development & Prog : Marc-Olivier Méhu
Technical & hardware support : Manuel Goepfert

Contact : metmap@orbifly.com




SOURCES & CREDITS :

   NOAA